createdAt,value
2023-05-04T00:02:04.188Z,5.53
2023-05-04T00:04:30.858Z,4.93
2023-05-04T00:06:57.519Z,5.73
2023-05-04T00:09:24.117Z,5.20
2023-05-04T00:11:50.830Z,5.37
2023-05-04T00:14:17.615Z,4.83
2023-05-04T00:16:44.390Z,7.17
2023-05-04T00:19:11.208Z,5.20
2023-05-04T00:21:37.947Z,6.33
2023-05-04T00:24:04.933Z,5.77
2023-05-04T00:26:31.543Z,9.17
2023-05-04T00:28:58.172Z,4.67
2023-05-04T00:31:24.824Z,5.70
2023-05-04T00:33:51.572Z,8.00
2023-05-04T00:36:18.196Z,6.00
2023-05-04T00:38:52.075Z,4.60
2023-05-04T00:41:19.759Z,4.93
2023-05-04T00:43:47.352Z,4.40
2023-05-04T00:46:14.754Z,5.03
2023-05-04T00:48:42.208Z,6.17
2023-05-04T00:51:11.815Z,5.60
2023-05-04T00:53:38.889Z,7.10
2023-05-04T00:56:07.510Z,5.83
2023-05-04T00:58:34.948Z,4.57
2023-05-04T01:01:03.308Z,6.10
2023-05-04T01:03:31.271Z,4.90
2023-05-04T01:06:44.046Z,5.73
2023-05-04T01:09:31.955Z,7.67
2023-05-04T01:12:08.829Z,4.80
2023-05-04T01:14:36.606Z,5.53
2023-05-04T01:17:07.606Z,5.73
2023-05-04T01:19:35.060Z,7.83
2023-05-04T01:22:01.731Z,8.40
2023-05-04T01:24:29.213Z,7.00
2023-05-04T01:27:09.458Z,8.97
2023-05-04T01:30:00.777Z,7.87
2023-05-04T01:32:31.985Z,5.53
2023-05-04T01:34:59.608Z,6.47
2023-05-04T01:37:26.454Z,6.83
2023-05-04T01:39:53.046Z,5.20
2023-05-04T01:42:19.762Z,5.60
2023-05-04T01:44:46.470Z,6.30
2023-05-04T01:47:13.085Z,4.87
2023-05-04T01:49:39.771Z,5.50
2023-05-04T01:52:06.691Z,6.23
2023-05-04T01:54:33.304Z,5.40
2023-05-04T01:56:59.894Z,5.20
2023-05-04T01:59:26.632Z,6.83
2023-05-04T02:01:53.312Z,5.60
2023-05-04T02:04:19.904Z,5.30
2023-05-04T02:06:47.848Z,5.97
2023-05-04T02:09:14.492Z,6.40
2023-05-04T02:11:41.357Z,6.57
2023-05-04T02:14:07.998Z,7.73
2023-05-04T02:16:34.672Z,6.27
2023-05-04T02:19:01.330Z,4.57
2023-05-04T02:21:28.039Z,6.03
2023-05-04T02:23:54.662Z,5.20
2023-05-04T02:26:21.296Z,6.67
2023-05-04T02:28:47.884Z,9.10
2023-05-04T02:31:14.625Z,7.23
2023-05-04T02:33:41.241Z,9.13
2023-05-04T02:36:09.118Z,6.27
2023-05-04T02:38:35.814Z,5.07
2023-05-04T02:41:03.015Z,9.00
2023-05-04T02:43:29.666Z,5.43
2023-05-04T02:45:56.347Z,7.30
2023-05-04T02:48:24.469Z,6.90
2023-05-04T02:50:51.734Z,8.20
2023-05-04T02:53:18.319Z,9.97
2023-05-04T02:55:44.913Z,8.43
2023-05-04T02:58:11.580Z,7.00
2023-05-04T03:00:38.177Z,6.00
2023-05-04T03:03:04.817Z,5.67
2023-05-04T03:05:31.572Z,5.57
2023-05-04T03:07:58.181Z,6.33
2023-05-04T03:10:24.834Z,6.73
2023-05-04T03:12:51.465Z,5.67
2023-05-04T03:15:18.162Z,6.40
2023-05-04T03:17:44.830Z,5.50
2023-05-04T03:20:12.877Z,5.83
2023-05-04T03:22:39.483Z,9.63
2023-05-04T03:25:07.028Z,6.63
2023-05-04T03:27:33.674Z,5.63
2023-05-04T03:30:00.441Z,8.27
2023-05-04T03:32:27.077Z,8.30
2023-05-04T03:34:53.701Z,7.03
2023-05-04T03:37:20.315Z,6.13
2023-05-04T03:39:46.950Z,5.87
2023-05-04T03:42:13.520Z,5.60
2023-05-04T03:44:40.774Z,6.63
2023-05-04T03:47:07.745Z,5.50
2023-05-04T03:49:35.218Z,5.40
2023-05-04T03:52:01.918Z,5.43
2023-05-04T03:54:28.596Z,10.60
2023-05-04T03:56:55.295Z,6.40
2023-05-04T03:59:21.960Z,7.67
2023-05-04T04:01:48.568Z,5.47
2023-05-04T04:04:15.271Z,7.10
2023-05-04T04:06:43.416Z,5.70
2023-05-04T04:09:10.326Z,6.17
2023-05-04T04:11:36.971Z,6.53
2023-05-04T04:14:03.677Z,6.67
2023-05-04T04:16:30.766Z,5.77
2023-05-04T04:18:58.009Z,7.07
2023-05-04T04:21:24.832Z,6.87
2023-05-04T04:23:51.707Z,7.67
2023-05-04T04:26:18.370Z,6.23
2023-05-04T04:28:50.212Z,5.87
2023-05-04T04:31:18.797Z,8.53
2023-05-04T04:33:45.442Z,11.07
2023-05-04T04:36:12.637Z,7.60
2023-05-04T04:38:39.785Z,8.17
2023-05-04T04:41:06.458Z,5.90
2023-05-04T04:43:33.688Z,8.93
2023-05-04T04:46:00.415Z,8.37
2023-05-04T04:48:27.022Z,11.33
2023-05-04T04:50:53.982Z,6.27
2023-05-04T04:53:20.649Z,7.73
2023-05-04T04:55:47.241Z,10.30
2023-05-04T04:58:13.857Z,6.97
2023-05-04T05:00:40.509Z,5.93
2023-05-04T05:03:07.241Z,6.70
2023-05-04T05:05:33.942Z,6.20
2023-05-04T05:08:00.584Z,8.17
2023-05-04T05:10:27.199Z,6.37
2023-05-04T05:12:53.936Z,8.77
2023-05-04T05:15:20.604Z,12.37
2023-05-04T05:17:47.239Z,8.23
2023-05-04T05:20:15.156Z,10.10
2023-05-04T05:22:42.860Z,7.90
2023-05-04T05:25:09.685Z,8.43
2023-05-04T05:27:36.814Z,10.00
2023-05-04T05:30:05.591Z,5.93
2023-05-04T05:32:32.793Z,10.73
2023-05-04T05:34:59.539Z,9.73
2023-05-04T05:37:26.301Z,10.30
2023-05-04T05:39:53.011Z,7.83
2023-05-04T05:42:20.189Z,9.47
2023-05-04T05:44:46.863Z,8.33
2023-05-04T05:47:13.691Z,10.23
2023-05-04T05:49:41.532Z,8.60
2023-05-04T05:52:08.806Z,6.57
2023-05-04T05:54:35.543Z,6.47
2023-05-04T05:57:02.393Z,5.40
2023-05-04T05:59:29.019Z,6.90
2023-05-04T06:01:56.073Z,9.13
2023-05-04T06:04:22.781Z,8.20
2023-05-04T06:06:49.538Z,7.80
2023-05-04T06:09:16.836Z,9.67
2023-05-04T06:11:43.488Z,9.17
2023-05-04T06:14:10.127Z,7.17
2023-05-04T06:16:36.953Z,5.67
2023-05-04T06:19:03.603Z,5.70
2023-05-04T06:21:30.228Z,9.13
2023-05-04T06:23:56.832Z,7.97
2023-05-04T06:26:23.671Z,9.87
2023-05-04T06:28:50.268Z,7.60
2023-05-04T06:31:16.909Z,5.70
2023-05-04T06:33:43.658Z,9.97
2023-05-04T06:36:11.777Z,10.07
2023-05-04T06:38:39.215Z,9.00
2023-05-04T06:41:06.197Z,13.67
2023-05-04T06:43:33.408Z,5.93
2023-05-04T06:46:03.823Z,12.27
2023-05-04T06:48:31.726Z,10.40
2023-05-04T06:51:00.206Z,6.20
2023-05-04T06:53:29.142Z,5.37
2023-05-04T06:55:55.998Z,6.90
2023-05-04T06:58:23.463Z,8.17
2023-05-04T07:00:50.907Z,4.80
2023-05-04T07:03:17.776Z,8.50
2023-05-04T07:05:51.489Z,8.27
2023-05-04T07:08:19.558Z,5.70
2023-05-04T07:10:46.469Z,12.00
2023-05-04T07:13:14.318Z,8.03
2023-05-04T07:15:40.975Z,7.13
2023-05-04T07:18:07.689Z,7.40
2023-05-04T07:20:34.368Z,6.53
2023-05-04T07:23:01.071Z,9.20
2023-05-04T07:25:28.454Z,8.07
2023-05-04T07:27:55.377Z,7.17
2023-05-04T07:30:22.363Z,7.30
2023-05-04T07:32:49.078Z,6.93
2023-05-04T07:35:15.972Z,8.23
2023-05-04T07:37:42.588Z,7.27
2023-05-04T07:40:10.312Z,4.80
2023-05-04T07:42:37.031Z,4.73
2023-05-04T07:45:04.138Z,6.70
2023-05-04T07:47:30.811Z,5.60
2023-05-04T07:49:57.426Z,5.23
2023-05-04T07:52:24.367Z,5.73
2023-05-04T07:54:54.633Z,8.50
2023-05-04T07:57:21.883Z,6.60
2023-05-04T07:59:48.667Z,7.17
2023-05-04T08:02:15.807Z,6.17
2023-05-04T08:04:42.545Z,6.73
2023-05-04T08:07:09.272Z,5.97
2023-05-04T08:09:35.958Z,4.80
2023-05-04T08:12:04.287Z,6.00
2023-05-04T08:14:30.925Z,5.30
2023-05-04T08:16:57.536Z,6.73
2023-05-04T08:19:24.510Z,4.70
2023-05-04T08:21:51.210Z,6.00
2023-05-04T08:24:18.445Z,11.70
2023-05-04T08:26:49.556Z,8.30
2023-05-04T08:29:22.710Z,5.40
2023-05-04T08:31:49.648Z,7.20
2023-05-04T08:34:16.498Z,5.50
2023-05-04T08:36:43.119Z,5.90
2023-05-04T08:39:11.847Z,6.20
2023-05-04T08:41:41.785Z,9.47
2023-05-04T08:44:10.760Z,7.57
2023-05-04T08:46:40.890Z,6.03
2023-05-04T08:49:07.811Z,10.90
2023-05-04T08:51:37.150Z,6.57
2023-05-04T08:54:09.606Z,5.07
2023-05-04T08:56:38.131Z,5.93
2023-05-04T08:59:05.892Z,6.00
2023-05-04T09:01:33.470Z,5.77
2023-05-04T09:04:03.024Z,6.30
2023-05-04T09:06:31.424Z,6.43
2023-05-04T09:08:58.157Z,6.67
2023-05-04T09:11:24.768Z,4.67
2023-05-04T09:13:51.528Z,4.83
2023-05-04T09:16:19.849Z,4.93
2023-05-04T09:18:46.642Z,6.97
2023-05-04T09:21:13.631Z,6.13
2023-05-04T09:23:51.323Z,8.47
2023-05-04T09:26:31.098Z,7.50
2023-05-04T09:29:09.702Z,4.93
2023-05-04T09:31:52.657Z,4.53
2023-05-04T09:34:21.260Z,6.30
2023-05-04T09:37:01.949Z,7.13
2023-05-04T09:39:29.275Z,4.57
2023-05-04T09:41:56.738Z,4.10
2023-05-04T09:44:25.437Z,5.40
2023-05-04T09:46:55.362Z,5.37
2023-05-04T09:49:35.347Z,5.47
2023-05-04T09:52:03.870Z,7.40
2023-05-04T09:54:35.780Z,6.97
2023-05-04T09:57:15.656Z,6.87
2023-05-04T09:59:43.345Z,5.07
2023-05-04T10:02:21.822Z,7.70
2023-05-04T10:04:51.496Z,4.67
2023-05-04T10:07:19.068Z,4.37
2023-05-04T10:09:48.501Z,6.60
2023-05-04T10:12:15.220Z,6.87
2023-05-04T10:14:46.549Z,5.77
2023-05-04T10:17:47.886Z,3.77
2023-05-04T10:20:33.128Z,4.30
2023-05-04T10:23:29.982Z,4.53
2023-05-04T10:26:22.339Z,7.67
2023-05-04T10:28:57.850Z,4.20
2023-05-04T10:31:24.607Z,3.87
2023-05-04T10:33:51.617Z,3.87
2023-05-04T10:36:18.288Z,6.17
2023-05-04T10:38:44.917Z,7.67
2023-05-04T10:41:19.452Z,8.17
2023-05-04T10:43:52.950Z,5.73
2023-05-04T10:46:21.252Z,7.20
2023-05-04T10:48:48.468Z,8.97
2023-05-04T10:51:22.478Z,3.70
2023-05-04T10:53:49.825Z,6.43
2023-05-04T10:56:27.674Z,2.90
2023-05-04T10:58:55.029Z,3.43
2023-05-04T11:01:22.336Z,3.40
2023-05-04T11:03:49.589Z,3.63
2023-05-04T11:06:24.057Z,3.20
2023-05-04T11:09:01.786Z,6.33
2023-05-04T11:11:28.653Z,3.50
2023-05-04T11:13:56.437Z,3.43
2023-05-04T11:16:24.344Z,3.63
2023-05-04T11:18:51.177Z,3.13
2023-05-04T11:21:25.691Z,3.93
2023-05-04T11:23:56.285Z,5.13
2023-05-04T11:26:24.237Z,3.07
2023-05-04T11:28:51.160Z,3.73
2023-05-04T11:31:19.531Z,6.27
2023-05-04T11:33:54.872Z,2.90
2023-05-04T11:36:22.630Z,2.87
2023-05-04T11:38:49.750Z,4.30
2023-05-04T11:41:16.579Z,4.77
2023-05-04T11:43:45.221Z,3.27
2023-05-04T11:46:12.699Z,5.50
2023-05-04T11:48:39.944Z,2.50
2023-05-04T11:51:07.006Z,4.33
2023-05-04T11:53:38.730Z,4.13
2023-05-04T11:56:06.811Z,2.93
2023-05-04T11:58:33.504Z,3.80
2023-05-04T12:01:00.324Z,3.20
2023-05-04T12:03:39.682Z,4.27
2023-05-04T12:06:16.372Z,2.77
2023-05-04T12:08:43.291Z,5.90
2023-05-04T12:11:14.829Z,2.80
2023-05-04T12:13:42.464Z,3.33
2023-05-04T12:16:20.126Z,4.60
2023-05-04T12:18:47.970Z,5.13
2023-05-04T12:21:18.498Z,2.40
2023-05-04T12:23:46.799Z,2.57
2023-05-04T12:26:14.190Z,3.57
2023-05-04T12:28:41.885Z,2.20
2023-05-04T12:31:08.795Z,4.23
2023-05-04T12:33:36.073Z,4.50
2023-05-04T12:36:05.180Z,2.60
2023-05-04T12:38:32.124Z,5.33
2023-05-04T12:41:02.157Z,2.13
2023-05-04T12:43:29.146Z,3.77
2023-05-04T12:45:55.898Z,3.23
2023-05-04T12:48:22.620Z,2.43
2023-05-04T12:50:50.441Z,2.57
2023-05-04T12:53:18.321Z,2.50
2023-05-04T12:55:45.233Z,5.93
2023-05-04T12:58:11.870Z,3.30
2023-05-04T13:00:39.084Z,2.63
2023-05-04T13:03:06.330Z,5.23
2023-05-04T13:05:33.437Z,3.80
2023-05-04T13:08:00.166Z,2.60
2023-05-04T13:10:26.996Z,2.37
2023-05-04T13:12:53.890Z,2.93
2023-05-04T13:15:20.580Z,2.33
2023-05-04T13:17:47.255Z,5.13
2023-05-04T13:20:15.977Z,4.47
2023-05-04T13:22:44.939Z,2.10
2023-05-04T13:25:11.612Z,3.10
2023-05-04T13:27:38.361Z,2.00
2023-05-04T13:30:05.916Z,2.40
2023-05-04T13:32:33.040Z,4.37
2023-05-04T13:34:59.793Z,2.67
2023-05-04T13:37:26.424Z,3.70
2023-05-04T13:39:53.097Z,2.93
2023-05-04T13:42:19.709Z,3.07
2023-05-04T13:44:47.371Z,4.77
2023-05-04T13:47:17.422Z,4.23
2023-05-04T13:49:44.334Z,5.97
2023-05-04T13:52:11.059Z,3.47
2023-05-04T13:54:37.789Z,6.33
2023-05-04T13:57:04.460Z,2.33
2023-05-04T13:59:31.196Z,4.20
2023-05-04T14:01:57.864Z,2.40
2023-05-04T14:04:24.678Z,1.97
2023-05-04T14:06:51.933Z,2.40
2023-05-04T14:09:19.219Z,2.83
2023-05-04T14:11:47.162Z,1.80
2023-05-04T14:14:13.957Z,3.67
2023-05-04T14:16:41.016Z,2.10
2023-05-04T14:19:07.752Z,2.93
2023-05-04T14:21:36.305Z,2.50
2023-05-04T14:24:03.521Z,1.73
2023-05-04T14:26:32.351Z,5.10
2023-05-04T14:28:59.262Z,2.10
2023-05-04T14:31:26.168Z,2.83
2023-05-04T14:33:54.182Z,5.43
2023-05-04T14:36:23.190Z,7.03
2023-05-04T14:38:49.849Z,3.33
2023-05-04T14:41:16.516Z,3.63
2023-05-04T14:43:43.324Z,3.30
2023-05-04T14:46:10.142Z,3.40
2023-05-04T14:48:36.911Z,2.47
2023-05-04T14:51:03.758Z,2.20
2023-05-04T14:53:34.152Z,4.40
2023-05-04T14:56:01.277Z,2.97
2023-05-04T14:58:28.798Z,5.23
2023-05-04T15:00:55.671Z,2.30
2023-05-04T15:03:22.428Z,4.27
2023-05-04T15:05:49.243Z,3.63
2023-05-04T15:08:15.852Z,2.47
2023-05-04T15:10:42.470Z,3.77
2023-05-04T15:13:09.244Z,2.07
2023-05-04T15:15:40.307Z,3.63
2023-05-04T15:18:07.323Z,4.83
2023-05-04T15:20:38.218Z,1.80
2023-05-04T15:23:10.404Z,1.90
2023-05-04T15:25:38.709Z,1.83
2023-05-04T15:28:10.647Z,2.50
2023-05-04T15:30:41.252Z,3.37
2023-05-04T15:33:08.800Z,2.27
2023-05-04T15:35:36.542Z,3.47
2023-05-04T15:38:03.282Z,1.45
2023-05-04T15:40:30.154Z,1.83
2023-05-04T15:42:56.775Z,1.60
2023-05-04T15:45:23.462Z,2.08
2023-05-04T15:47:50.224Z,4.83
2023-05-04T15:50:16.932Z,4.47
2023-05-04T15:52:43.568Z,4.40
2023-05-04T15:55:24.410Z,1.92
2023-05-04T15:57:52.525Z,2.13
2023-05-04T16:00:19.634Z,2.80
2023-05-04T16:02:46.375Z,2.03
2023-05-04T16:05:13.266Z,2.30
2023-05-04T16:07:39.976Z,2.50
2023-05-04T16:10:07.311Z,2.83
2023-05-04T16:12:34.297Z,8.87
2023-05-04T16:15:01.169Z,2.63
2023-05-04T16:17:29.203Z,2.00
2023-05-04T16:19:56.028Z,3.87
2023-05-04T16:22:22.688Z,2.38
2023-05-04T16:24:49.286Z,2.45
2023-05-04T16:27:16.568Z,3.33
2023-05-04T16:29:43.188Z,2.33
2023-05-04T16:32:09.798Z,1.70
2023-05-04T16:34:36.453Z,4.85
2023-05-04T16:37:03.135Z,1.50
2023-05-04T16:39:34.279Z,2.45
2023-05-04T16:42:02.114Z,3.47
2023-05-04T16:44:31.296Z,3.60
2023-05-04T16:47:00.879Z,2.78
2023-05-04T16:49:27.576Z,2.22
2023-05-04T16:51:55.210Z,2.70
2023-05-04T16:54:23.976Z,1.43
2023-05-04T16:56:50.845Z,1.40
2023-05-04T16:59:17.564Z,2.67
2023-05-04T17:01:44.427Z,3.90
2023-05-04T17:04:11.665Z,2.10
2023-05-04T17:06:38.449Z,1.93
2023-05-04T17:09:05.556Z,1.83
2023-05-04T17:11:32.330Z,2.17
2023-05-04T17:13:59.742Z,1.60
2023-05-04T17:16:26.574Z,1.58
2023-05-04T17:18:53.259Z,1.30
2023-05-04T17:21:19.913Z,3.40
2023-05-04T17:23:46.589Z,2.72
2023-05-04T17:26:13.301Z,2.63
2023-05-04T17:28:39.976Z,4.72
2023-05-04T17:31:10.852Z,1.87
2023-05-04T17:33:37.477Z,2.20
2023-05-04T17:36:05.893Z,1.93
2023-05-04T17:38:32.558Z,2.05
2023-05-04T17:40:59.269Z,1.47
2023-05-04T17:43:26.197Z,2.50
2023-05-04T17:45:55.500Z,1.67
2023-05-04T17:48:23.900Z,1.33
2023-05-04T17:50:50.990Z,3.90
2023-05-04T17:53:17.676Z,1.73
2023-05-04T17:55:44.359Z,1.40
2023-05-04T17:58:12.553Z,3.70
2023-05-04T18:00:39.210Z,2.93
2023-05-04T18:03:06.096Z,2.07
2023-05-04T18:05:32.776Z,1.40
2023-05-04T18:07:59.450Z,1.43
2023-05-04T18:10:26.179Z,1.57
2023-05-04T18:12:52.978Z,3.10
2023-05-04T18:15:19.782Z,2.03
2023-05-04T18:17:46.511Z,5.10
2023-05-04T18:20:13.655Z,3.37
2023-05-04T18:22:41.173Z,3.17
2023-05-04T18:25:08.701Z,2.80
2023-05-04T18:27:35.821Z,1.60
2023-05-04T18:30:03.932Z,2.77
2023-05-04T18:32:30.693Z,3.13
2023-05-04T18:34:57.937Z,1.65
2023-05-04T18:37:25.475Z,3.55
2023-05-04T18:39:52.253Z,1.90
2023-05-04T18:42:18.932Z,2.57
2023-05-04T18:44:45.887Z,1.43
2023-05-04T18:47:12.590Z,2.13
2023-05-04T18:49:39.228Z,1.50
2023-05-04T18:52:06.057Z,1.70
2023-05-04T18:54:33.011Z,1.67
2023-05-04T18:56:59.708Z,3.30
2023-05-04T18:59:26.426Z,1.73
2023-05-04T19:01:53.459Z,2.23
2023-05-04T19:04:20.341Z,4.07
2023-05-04T19:06:47.723Z,2.03
2023-05-04T19:09:14.816Z,2.10
2023-05-04T19:11:42.790Z,1.47
2023-05-04T19:14:09.447Z,3.07
2023-05-04T19:16:36.123Z,1.77
2023-05-04T19:19:03.336Z,1.70
2023-05-04T19:21:29.997Z,1.97
2023-05-04T19:23:56.736Z,1.93
2023-05-04T19:26:23.474Z,3.57
2023-05-04T19:28:50.655Z,2.17
2023-05-04T19:31:17.610Z,1.60
2023-05-04T19:33:48.601Z,2.17
2023-05-04T19:36:16.795Z,2.70
2023-05-04T19:38:43.544Z,3.73
2023-05-04T19:41:10.312Z,3.43
2023-05-04T19:43:38.726Z,2.03
2023-05-04T19:46:05.862Z,2.60
2023-05-04T19:48:32.908Z,3.17
2023-05-04T19:50:59.936Z,2.07
2023-05-04T19:53:26.898Z,2.03
2023-05-04T19:55:54.028Z,2.43
2023-05-04T19:58:21.981Z,1.90
2023-05-04T20:00:48.780Z,3.20
2023-05-04T20:03:16.925Z,2.33
2023-05-04T20:05:43.635Z,1.70
2023-05-04T20:08:10.953Z,2.30
2023-05-04T20:10:37.816Z,3.23
2023-05-04T20:13:05.897Z,2.00
2023-05-04T20:15:32.929Z,2.40
2023-05-04T20:17:59.719Z,2.60
2023-05-04T20:20:26.754Z,1.70
2023-05-04T20:22:53.793Z,3.33
2023-05-04T20:25:23.631Z,2.83
2023-05-04T20:27:52.760Z,2.37
2023-05-04T20:30:19.695Z,4.60
2023-05-04T20:32:49.575Z,2.63
2023-05-04T20:35:19.660Z,4.53
2023-05-04T20:37:46.592Z,2.53
2023-05-04T20:40:13.559Z,2.20
2023-05-04T20:42:40.669Z,3.73
2023-05-04T20:45:08.492Z,2.03
2023-05-04T20:47:35.220Z,3.73
2023-05-04T20:50:02.062Z,5.60
2023-05-04T20:52:28.826Z,3.47
2023-05-04T20:54:55.505Z,2.30
2023-05-04T20:57:22.179Z,4.07
2023-05-04T20:59:48.804Z,5.10
2023-05-04T21:02:15.663Z,3.63
2023-05-04T21:04:43.307Z,2.50
2023-05-04T21:07:09.963Z,5.53
2023-05-04T21:09:36.652Z,4.70
2023-05-04T21:12:03.745Z,4.30
2023-05-04T21:14:30.713Z,5.20
2023-05-04T21:16:57.436Z,3.13
2023-05-04T21:19:24.131Z,4.23
2023-05-04T21:21:50.777Z,6.17
2023-05-04T21:24:17.465Z,4.40
2023-05-04T21:26:45.505Z,3.17
2023-05-04T21:29:15.295Z,5.20
2023-05-04T21:31:43.035Z,3.40
2023-05-04T21:34:10.268Z,9.87
2023-05-04T21:36:38.890Z,2.40
2023-05-04T21:39:05.934Z,3.87
2023-05-04T21:41:32.648Z,2.80
2023-05-04T21:43:59.265Z,2.70
2023-05-04T21:46:25.941Z,3.40
2023-05-04T21:48:52.583Z,2.73
2023-05-04T21:51:20.783Z,4.17
2023-05-04T21:53:47.926Z,6.00
2023-05-04T21:56:15.375Z,2.50
2023-05-04T21:58:42.954Z,2.93
2023-05-04T22:01:14.653Z,2.83
2023-05-04T22:03:44.680Z,2.67
2023-05-04T22:06:11.845Z,4.57
2023-05-04T22:08:38.533Z,3.33
2023-05-04T22:11:05.922Z,4.97
2023-05-04T22:13:32.551Z,2.60
2023-05-04T22:15:59.189Z,3.93
2023-05-04T22:18:25.886Z,2.90
2023-05-04T22:20:52.492Z,2.67
2023-05-04T22:23:19.101Z,4.33
2023-05-04T22:25:45.873Z,3.23
2023-05-04T22:28:12.555Z,3.73
2023-05-04T22:30:39.816Z,3.77
2023-05-04T22:33:06.620Z,4.37
2023-05-04T22:35:33.314Z,3.80
2023-05-04T22:37:59.951Z,3.57
2023-05-04T22:40:26.714Z,3.03
2023-05-04T22:42:53.376Z,3.37
2023-05-04T22:45:20.140Z,3.60
2023-05-04T22:47:47.168Z,2.97
2023-05-04T22:50:14.280Z,4.37
2023-05-04T22:52:41.332Z,5.37
2023-05-04T22:55:08.921Z,4.47
2023-05-04T22:57:35.864Z,3.97
2023-05-04T23:00:07.469Z,5.43
2023-05-04T23:02:35.143Z,3.30
2023-05-04T23:05:01.944Z,3.10
2023-05-04T23:07:28.554Z,2.97
2023-05-04T23:09:55.298Z,3.83
2023-05-04T23:12:21.960Z,4.13
2023-05-04T23:14:52.183Z,4.53
2023-05-04T23:17:19.460Z,3.83
2023-05-04T23:19:46.102Z,3.00
2023-05-04T23:22:13.324Z,5.33
2023-05-04T23:24:40.069Z,3.10
2023-05-04T23:27:06.919Z,5.93
2023-05-04T23:29:33.798Z,3.80
2023-05-04T23:32:00.650Z,4.37
2023-05-04T23:34:27.394Z,5.67
2023-05-04T23:36:54.624Z,3.43
2023-05-04T23:39:21.469Z,4.20
2023-05-04T23:41:48.137Z,5.00
2023-05-04T23:44:14.792Z,3.57
2023-05-04T23:46:41.427Z,4.50
2023-05-04T23:49:08.027Z,4.63
2023-05-04T23:51:34.706Z,5.97
2023-05-04T23:54:01.357Z,6.47
2023-05-04T23:56:28.514Z,5.13
2023-05-04T23:58:55.200Z,6.30
